Time;durP1;ratioP1;P1;durP2;ratioP2;P2;SDS_P1;SDS_P2;PMS_P1;PMS_P2;Temp;Humidity;BMP_temperature;BMP_pressure;BME280_temperature;BME280_humidity;BME280_pressure;Samples;Min_cycle;Max_cycle;Signal;HPM_P1;HPM_P2
2022/05/20 00:00:14;;;;;;;37.28;33.05;;;17.30;90.90;;;;;;5056259;28;20192;-90
2022/05/20 00:02:39;;;;;;;40.55;35.60;;;17.20;91.00;;;;;;5039049;28;20183;-89
2022/05/20 00:05:05;;;;;;;46.60;37.38;;;17.10;90.60;;;;;;5038778;28;20267;-90
2022/05/20 00:07:31;;;;;;;50.30;37.70;;;16.90;90.60;;;;;;5056532;28;20199;-90
2022/05/20 00:09:56;;;;;;;52.78;38.97;;;16.80;90.40;;;;;;5038648;28;20175;-87
2022/05/20 00:12:22;;;;;;;43.47;38.42;;;16.70;90.40;;;;;;5056161;28;20222;-89
2022/05/20 00:14:48;;;;;;;50.80;37.38;;;16.60;90.20;;;;;;5038338;28;20172;-87
2022/05/20 00:17:13;;;;;;;48.45;39.60;;;16.40;90.10;;;;;;5038292;28;20182;-87
2022/05/20 00:19:39;;;;;;;45.83;39.63;;;16.30;90.10;;;;;;5056221;28;20172;-87
2022/05/20 00:22:05;;;;;;;49.60;38.83;;;16.20;90.10;;;;;;5037860;28;20199;-88
2022/05/20 00:24:31;;;;;;;46.65;40.53;;;16.20;90.10;;;;;;5037968;28;20551;-88
2022/05/20 00:26:57;;;;;;;50.28;41.08;;;16.20;90.30;;;;;;5055793;28;20194;-87
2022/05/20 00:29:23;;;;;;;52.80;41.70;;;16.10;90.20;;;;;;5055676;28;20173;-87
2022/05/20 00:31:48;;;;;;;49.55;42.13;;;16.10;90.40;;;;;;5055327;28;20215;-87
2022/05/20 00:34:14;;;;;;;56.58;44.05;;;16.00;90.30;;;;;;5056040;28;20182;-87
2022/05/20 00:36:40;;;;;;;48.28;43.15;;;16.10;90.40;;;;;;5055531;28;20168;-87
2022/05/20 00:39:05;;;;;;;55.63;43.10;;;16.00;90.40;;;;;;5037017;28;20175;-86
2022/05/20 00:41:31;;;;;;;53.30;41.25;;;15.90;90.50;;;;;;5037411;28;20204;-87
2022/05/20 00:43:58;;;;;;;48.58;38.45;;;15.80;90.40;;;;;;5055350;28;20176;-87
2022/05/20 00:46:26;;;;;;;48.42;38.60;;;15.80;90.30;;;;;;5037532;28;20175;-86
2022/05/20 00:49:14;;;;;;;50.13;40.57;;;15.70;89.90;;;;;;5037360;28;20223;-87
2022/05/20 00:51:45;;;;;;;50.53;42.47;;;15.50;89.70;;;;;;5037358;28;20614;-88
2022/05/20 00:54:33;;;;;;;51.00;40.00;;;15.30;89.80;;;;;;5037465;28;20171;-87
2022/05/20 00:56:59;;;;;;;51.13;40.50;;;15.20;89.80;;;;;;5036656;28;20191;-87
2022/05/20 00:59:28;;;;;;;44.27;37.97;;;15.20;89.80;;;;;;5037337;28;20176;-88
2022/05/20 01:01:57;;;;;;;45.00;38.30;;;15.10;89.90;;;;;;5037265;28;20196;-88
2022/05/20 01:04:24;;;;;;;47.37;37.60;;;15.00;89.90;;;;;;5037155;28;20665;-86
2022/05/20 01:06:50;;;;;;;47.87;38.93;;;15.00;89.80;;;;;;5037245;28;20674;-87
2022/05/20 01:09:15;;;;;;;47.87;39.93;;;14.90;89.90;;;;;;5054974;28;20178;-87
2022/05/20 01:11:41;;;;;;;43.43;38.63;;;14.80;90.10;;;;;;5037095;28;20199;-87
2022/05/20 01:14:08;;;;;;;46.73;38.73;;;14.80;90.10;;;;;;5055231;28;20218;-87
2022/05/20 01:16:35;;;;;;;43.43;34.90;;;14.80;90.20;;;;;;5037396;28;20642;-87
2022/05/20 01:19:01;;;;;;;39.07;31.87;;;14.80;90.30;;;;;;5054761;28;20188;-87
2022/05/20 01:21:27;;;;;;;33.27;28.93;;;14.70;90.20;;;;;;5036796;28;20245;-87
2022/05/20 01:23:59;;;;;;;30.40;26.33;;;14.60;90.00;;;;;;5054837;28;20172;-87
2022/05/20 01:26:25;;;;;;;26.43;23.30;;;14.50;90.00;;;;;;5036789;28;20222;-87
2022/05/20 01:28:50;;;;;;;28.43;22.73;;;14.40;90.00;;;;;;5036789;28;20204;-87
2022/05/20 01:31:16;;;;;;;22.23;19.93;;;14.40;89.90;;;;;;5036629;28;20195;-87
2022/05/20 01:33:45;;;;;;;21.00;18.23;;;14.30;89.60;;;;;;5036719;28;20739;-87
2022/05/20 01:36:17;;;;;;;33.27;18.10;;;14.30;89.60;;;;;;5036713;28;20258;-87
2022/05/20 01:38:43;;;;;;;26.33;18.33;;;14.30;89.60;;;;;;5054703;28;20157;-87
2022/05/20 01:41:15;;;;;;;22.90;18.20;;;14.30;89.70;;;;;;5054331;28;20565;-87
2022/05/20 01:43:57;;;;;;;26.00;17.93;;;14.30;89.70;;;;;;5036783;28;20180;-87
2022/05/20 01:46:32;;;;;;;25.03;17.27;;;14.30;89.60;;;;;;5054408;28;20156;-87
2022/05/20 01:49:02;;;;;;;20.33;16.20;;;14.20;89.50;;;;;;5054184;28;20202;-86
2022/05/20 01:51:32;;;;;;;20.90;15.70;;;14.00;89.50;;;;;;5035517;28;20234;-87
2022/05/20 01:54:05;;;;;;;21.33;16.00;;;14.00;89.50;;;;;;5036469;28;20200;-87
2022/05/20 01:56:38;;;;;;;18.93;15.60;;;14.00;89.40;;;;;;5036350;28;20164;-86
2022/05/20 01:59:21;;;;;;;23.20;14.87;;;14.00;89.40;;;;;;5054181;28;20172;-86
2022/05/20 02:01:54;;;;;;;17.97;13.80;;;13.90;89.30;;;;;;5036213;28;20196;-87
2022/05/20 02:04:28;;;;;;;18.50;14.17;;;13.90;89.50;;;;;;5036329;28;20168;-87
2022/05/20 02:06:59;;;;;;;23.77;15.67;;;13.80;89.40;;;;;;5036114;28;20171;-87
2022/05/20 02:09:36;;;;;;;21.43;14.87;;;13.70;89.40;;;;;;5053841;28;20159;-87
2022/05/20 02:12:02;;;;;;;21.73;14.93;;;13.60;89.50;;;;;;5036075;28;20188;-87
2022/05/20 02:14:55;;;;;;;20.90;14.67;;;13.60;89.80;;;;;;5036125;28;20179;-87
2022/05/20 02:17:27;;;;;;;19.47;14.00;;;13.50;90.00;;;;;;5054051;28;20610;-87
2022/05/20 02:19:58;;;;;;;21.80;13.67;;;13.60;90.00;;;;;;5035934;28;20168;-86
2022/05/20 02:22:27;;;;;;;17.70;11.97;;;13.50;90.00;;;;;;5054118;28;20163;-87
2022/05/20 02:24:54;;;;;;;20.50;13.07;;;13.50;90.10;;;;;;5035783;28;20550;-87
2022/05/20 02:27:24;;;;;;;20.80;12.33;;;13.50;90.10;;;;;;5053574;28;20203;-87
2022/05/20 02:30:05;;;;;;;18.20;11.57;;;13.50;90.20;;;;;;5053506;28;20200;-87
2022/05/20 02:32:36;;;;;;;15.70;11.27;;;13.50;90.10;;;;;;5053357;28;20196;-86
2022/05/20 02:35:02;;;;;;;18.70;10.43;;;13.40;90.10;;;;;;5035815;28;20183;-87
2022/05/20 02:37:31;;;;;;;15.87;11.07;;;13.40;90.20;;;;;;5036135;28;20176;-86
2022/05/20 02:39:58;;;;;;;14.97;10.30;;;13.40;90.10;;;;;;5053324;28;20172;-87
2022/05/20 02:42:23;;;;;;;19.40;10.57;;;13.40;90.00;;;;;;5035652;28;20180;-87
2022/05/20 02:44:49;;;;;;;12.67;9.63;;;13.40;90.00;;;;;;5053557;28;20179;-87
2022/05/20 02:47:15;;;;;;;16.10;9.53;;;13.40;89.90;;;;;;5035536;28;20640;-87
2022/05/20 02:49:41;;;;;;;14.47;9.27;;;13.40;89.80;;;;;;5035859;28;20202;-86
2022/05/20 02:52:08;;;;;;;15.07;8.57;;;13.40;89.80;;;;;;5035511;28;20199;-86
2022/05/20 02:54:34;;;;;;;13.90;8.43;;;13.40;89.70;;;;;;5053280;28;20164;-87
2022/05/20 02:57:00;;;;;;;17.37;8.67;;;13.40;89.80;;;;;;5053352;28;20202;-87
2022/05/20 03:04:54;;;;;;;15.47;7.73;;;13.50;89.70;;;;;;5053937;28;20179;-87
2022/05/20 03:07:19;;;;;;;15.03;8.13;;;13.50;89.60;;;;;;5053346;28;20662;-87
2022/05/20 03:09:45;;;;;;;11.97;7.80;;;13.40;89.60;;;;;;5035427;28;20179;-87
2022/05/20 03:12:11;;;;;;;17.57;9.80;;;13.50;89.90;;;;;;5035475;28;20208;-87
2022/05/20 03:14:38;;;;;;;12.80;8.70;;;13.40;89.90;;;;;;5035354;28;20183;-86
2022/05/20 03:17:04;;;;;;;16.90;9.80;;;13.40;89.80;;;;;;5053089;28;20255;-87
2022/05/20 03:19:30;;;;;;;18.57;9.43;;;13.50;89.70;;;;;;5035474;28;20265;-87
2022/05/20 03:22:01;;;;;;;15.90;9.83;;;13.50;89.60;;;;;;5053156;28;20188;-87
2022/05/20 03:24:28;;;;;;;13.83;9.70;;;13.50;89.60;;;;;;5035373;28;20172;-87
2022/05/20 03:26:53;;;;;;;17.27;9.60;;;13.50;89.70;;;;;;5053085;28;20196;-88
2022/05/20 03:29:19;;;;;;;13.93;8.97;;;13.50;89.60;;;;;;5035417;28;20642;-88
2022/05/20 03:31:45;;;;;;;12.10;8.03;;;13.50;89.60;;;;;;5034910;28;20217;-87
2022/05/20 03:34:11;;;;;;;12.67;7.93;;;13.50;89.50;;;;;;5035467;28;20619;-87
2022/05/20 03:36:44;;;;;;;12.70;7.10;;;13.50;89.40;;;;;;5035228;28;20198;-87
2022/05/20 03:39:14;;;;;;;18.70;6.73;;;13.50;89.30;;;;;;5035157;28;20558;-88
2022/05/20 03:41:40;;;;;;;11.83;6.27;;;13.60;89.30;;;;;;5035018;28;20291;-88
2022/05/20 03:44:08;;;;;;;13.53;6.30;;;13.50;89.30;;;;;;5035313;28;20203;-87
2022/05/20 03:46:39;;;;;;;12.87;6.33;;;13.50;89.20;;;;;;5035194;28;20180;-87
2022/05/20 03:49:04;;;;;;;10.20;5.93;;;13.50;89.10;;;;;;5035053;28;20681;-87
2022/05/20 03:51:30;;;;;;;14.20;5.93;;;13.50;88.90;;;;;;5035203;28;20203;-87
2022/05/20 03:53:56;;;;;;;15.13;6.70;;;13.50;88.80;;;;;;5053175;28;20654;-87
2022/05/20 03:56:21;;;;;;;16.70;6.03;;;13.50;88.80;;;;;;5053008;28;20172;-87
2022/05/20 03:58:47;;;;;;;10.23;6.00;;;13.50;88.90;;;;;;5035427;28;20215;-88
2022/05/20 04:03:57;;;;;;;11.70;5.03;;;13.50;88.80;;;;;;5053379;28;20171;-87
2022/05/20 04:06:23;;;;;;;10.63;4.67;;;13.50;88.90;;;;;;5052903;28;20233;-87
2022/05/20 04:08:49;;;;;;;14.63;6.50;;;13.50;88.50;;;;;;5035026;28;20211;-87
2022/05/20 04:11:14;;;;;;;17.00;7.10;;;13.50;88.50;;;;;;5053155;28;20275;-87
2022/05/20 04:13:44;;;;;;;19.97;7.67;;;13.50;88.60;;;;;;5037245;28;20176;-88
2022/05/20 04:16:12;;;;;;;13.60;8.27;;;13.50;88.70;;;;;;5056491;28;20175;-88
2022/05/20 04:18:38;;;;;;;15.37;8.77;;;13.50;89.00;;;;;;5056527;28;20180;-88
2022/05/20 04:21:04;;;;;;;16.60;9.57;;;13.50;89.20;;;;;;5056402;28;20218;-87
2022/05/20 04:23:31;;;;;;;25.33;10.00;;;13.60;89.20;;;;;;5038827;28;20180;-88
2022/05/20 04:25:56;;;;;;;19.37;8.87;;;13.60;89.40;;;;;;5038535;28;20249;-87
2022/05/20 04:28:22;;;;;;;20.20;9.77;;;13.60;89.30;;;;;;5038614;28;20207;-88
2022/05/20 04:30:47;;;;;;;16.60;9.73;;;13.60;89.50;;;;;;5038424;28;20685;-87
2022/05/20 04:33:13;;;;;;;17.57;9.33;;;13.60;89.60;;;;;;5056084;28;20276;-88
2022/05/20 04:35:39;;;;;;;18.50;10.57;;;13.60;89.60;;;;;;5038358;28;20180;-88
2022/05/20 04:38:04;;;;;;;19.20;10.87;;;13.70;89.70;;;;;;5056126;28;20179;-87
2022/05/20 04:40:30;;;;;;;23.03;11.80;;;13.70;89.50;;;;;;5056543;28;20222;-88
2022/05/20 04:48:25;;;;;;;22.37;10.57;;;13.70;89.30;;;;;;5056492;28;20559;-87
2022/05/20 04:50:51;;;;;;;21.73;9.30;;;13.70;89.00;;;;;;5038129;28;20279;-89
2022/05/20 04:56:01;;;;;;;21.50;9.13;;;13.70;88.80;;;;;;5056306;28;20160;-88
2022/05/20 04:58:26;;;;;;;20.30;8.93;;;13.80;88.80;;;;;;5056057;28;20172;-88
2022/05/20 05:00:54;;;;;;;17.80;8.67;;;13.70;88.50;;;;;;5037967;28;20568;-87
2022/05/20 05:03:20;;;;;;;19.70;9.47;;;13.70;88.40;;;;;;5056053;28;20187;-88
2022/05/20 05:05:45;;;;;;;15.90;7.70;;;13.70;88.80;;;;;;5038663;28;20172;-88
2022/05/20 05:08:11;;;;;;;14.27;7.17;;;13.70;88.90;;;;;;5055817;28;20666;-88
2022/05/20 05:10:36;;;;;;;15.13;6.87;;;13.70;88.90;;;;;;5037957;28;20192;-88
2022/05/20 05:13:03;;;;;;;17.03;6.90;;;13.70;88.50;;;;;;5037914;28;20176;-88
2022/05/20 05:15:28;;;;;;;16.67;6.97;;;13.70;88.60;;;;;;5037470;28;20183;-88
2022/05/20 05:18:09;;;;;;;14.70;6.60;;;13.70;88.80;;;;;;5038523;28;20263;-88
2022/05/20 05:20:35;;;;;;;15.43;7.07;;;13.70;88.70;;;;;;5037759;28;20576;-87
2022/05/20 05:23:02;;;;;;;13.40;5.27;;;13.80;88.80;;;;;;5055125;28;20247;-88
2022/05/20 05:25:31;;;;;;;20.57;6.80;;;13.80;88.60;;;;;;5054986;28;20176;-89
2022/05/20 05:27:57;;;;;;;16.20;5.17;;;13.90;88.40;;;;;;5036975;28;20204;-88
2022/05/20 05:30:23;;;;;;;12.83;5.30;;;13.90;88.60;;;;;;5037250;28;20677;-88
2022/05/20 05:32:49;;;;;;;19.60;5.47;;;14.00;88.20;;;;;;5037213;28;20223;-88
2022/05/20 05:35:18;;;;;;;10.90;4.70;;;14.00;87.90;;;;;;5037515;28;20650;-88
2022/05/20 05:37:44;;;;;;;11.73;5.20;;;14.00;87.50;;;;;;5037128;28;20215;-88
2022/05/20 05:40:13;;;;;;;10.70;4.70;;;14.00;87.80;;;;;;5036816;28;20219;-87
2022/05/20 05:42:41;;;;;;;11.53;5.10;;;14.00;87.90;;;;;;5054873;28;20172;-87
2022/05/20 05:45:07;;;;;;;12.50;5.23;;;14.10;87.50;;;;;;5054893;28;20218;-87
2022/05/20 05:47:33;;;;;;;15.40;4.90;;;14.00;87.60;;;;;;5036705;28;20238;-88
2022/05/20 05:49:58;;;;;;;19.13;5.73;;;14.00;87.30;;;;;;5036630;28;20183;-88
2022/05/20 05:52:24;;;;;;;12.07;5.00;;;14.00;87.10;;;;;;5036660;28;20604;-87
2022/05/20 05:54:49;;;;;;;19.57;5.60;;;14.10;87.40;;;;;;5054644;28;20691;-87
2022/05/20 05:57:15;;;;;;;12.13;4.77;;;14.20;87.60;;;;;;5036758;28;20263;-88
2022/05/20 05:59:41;;;;;;;13.53;5.07;;;14.20;87.00;;;;;;5036655;28;20180;-88
2022/05/20 06:02:08;;;;;;;11.50;4.67;;;14.20;86.20;;;;;;5036589;28;20334;-88
2022/05/20 06:04:34;;;;;;;23.10;5.40;;;14.20;86.50;;;;;;5036239;28;20180;-87
2022/05/20 06:07:00;;;;;;;11.40;3.87;;;14.30;86.50;;;;;;5054051;28;20211;-88
2022/05/20 06:09:25;;;;;;;9.80;3.87;;;14.20;86.80;;;;;;5036280;28;20211;-88
2022/05/20 06:11:51;;;;;;;16.23;4.53;;;14.20;85.90;;;;;;5036310;28;20753;-88
2022/05/20 06:14:17;;;;;;;9.17;3.60;;;14.20;85.80;;;;;;5054103;28;20176;-88
2022/05/20 06:16:43;;;;;;;9.43;4.20;;;14.10;86.30;;;;;;5036388;28;20183;-87
2022/05/20 06:19:09;;;;;;;10.20;3.83;;;14.20;86.50;;;;;;5036179;28;20704;-88
2022/05/20 06:21:34;;;;;;;12.13;4.20;;;14.20;86.50;;;;;;5036080;28;20669;-87
2022/05/20 06:24:01;;;;;;;17.00;3.83;;;14.20;86.60;;;;;;5036244;28;20196;-87
2022/05/20 06:26:30;;;;;;;8.97;3.07;;;14.20;84.70;;;;;;5037969;28;20180;-87
2022/05/20 06:28:56;;;;;;;10.63;3.00;;;14.20;84.80;;;;;;5036053;28;20208;-88
2022/05/20 06:31:22;;;;;;;8.93;2.63;;;14.20;84.70;;;;;;5036390;28;20618;-86
2022/05/20 06:33:47;;;;;;;8.97;3.07;;;14.20;85.00;;;;;;5054279;28;20176;-88
2022/05/20 06:41:41;;;;;;;12.93;3.40;;;14.60;84.40;;;;;;5053865;28;20206;-87
2022/05/20 06:44:07;;;;;;;6.10;2.67;;;14.50;83.60;;;;;;5035726;28;20176;-87
2022/05/20 06:46:33;;;;;;;8.37;2.70;;;14.60;83.80;;;;;;5035583;28;20642;-87
2022/05/20 06:48:59;;;;;;;6.47;2.70;;;14.60;82.90;;;;;;5053410;28;20242;-87
2022/05/20 06:51:29;;;;;;;7.80;2.23;;;14.50;82.30;;;;;;5035649;28;20600;-87
2022/05/20 06:53:57;;;;;;;7.70;2.17;;;14.60;82.00;;;;;;5053334;28;20179;-87
2022/05/20 06:56:24;;;;;;;8.73;2.50;;;14.60;81.10;;;;;;5035292;28;20172;-87
2022/05/20 06:58:50;;;;;;;7.60;2.27;;;14.60;81.30;;;;;;5053295;28;20263;-88
2022/05/20 07:01:16;;;;;;;4.63;2.07;;;14.60;81.40;;;;;;5053167;28;20285;-87
2022/05/20 07:03:42;;;;;;;7.13;2.20;;;14.60;81.20;;;;;;5035479;28;20183;-87
2022/05/20 07:06:08;;;;;;;10.17;3.00;;;14.70;81.10;;;;;;5053120;28;20176;-88
2022/05/20 07:08:35;;;;;;;8.87;2.40;;;14.70;80.70;;;;;;5035371;28;20195;-87
2022/05/20 07:11:02;;;;;;;7.73;3.30;;;14.70;80.80;;;;;;5035280;28;20304;-86
2022/05/20 07:13:29;;;;;;;11.23;3.37;;;14.60;81.30;;;;;;5035491;28;20172;-87
2022/05/20 07:15:55;;;;;;;10.83;3.50;;;14.70;81.50;;;;;;5053177;28;20251;-87
2022/05/20 07:18:20;;;;;;;10.43;3.30;;;14.70;82.00;;;;;;5053210;28;20199;-87
2022/05/20 07:20:46;;;;;;;8.30;3.10;;;14.70;82.10;;;;;;5035363;28;20280;-88
2022/05/20 07:23:11;;;;;;;9.83;3.60;;;14.80;82.20;;;;;;5035223;28;20603;-87
2022/05/20 07:25:37;;;;;;;10.53;3.30;;;14.80;81.70;;;;;;5035315;28;20642;-85
2022/05/20 07:28:05;;;;;;;5.87;2.60;;;14.80;82.30;;;;;;5052930;28;20227;-87
2022/05/20 07:30:31;;;;;;;7.13;3.17;;;14.90;80.90;;;;;;5052860;28;20190;-88
2022/05/20 07:32:57;;;;;;;14.17;3.60;;;14.90;80.90;;;;;;5052850;28;20192;-88
2022/05/20 07:35:22;;;;;;;8.77;4.13;;;15.00;81.10;;;;;;5035154;28;20553;-88
2022/05/20 07:37:50;;;;;;;9.40;3.27;;;15.10;81.70;;;;;;5053681;28;20198;-87
2022/05/20 07:40:17;;;;;;;9.47;3.20;;;15.00;80.80;;;;;;5053130;28;20195;-87
2022/05/20 07:42:42;;;;;;;10.23;3.10;;;15.00;81.40;;;;;;5053857;28;20707;-88
2022/05/20 07:45:08;;;;;;;10.10;3.67;;;14.90;81.30;;;;;;5036768;28;20180;-88
2022/05/20 07:47:34;;;;;;;12.87;3.40;;;15.00;81.60;;;;;;5037317;28;20574;-88
2022/05/20 07:50:00;;;;;;;8.30;3.30;;;15.10;80.60;;;;;;5039621;28;20172;-90
2022/05/20 07:55:09;;;;;;;11.25;2.80;;;15.30;80.00;;;;;;5058151;28;20213;-88
2022/05/20 07:57:38;;;;;;;9.20;3.08;;;15.30;79.50;;;;;;5057108;28;20259;-88
2022/05/20 08:00:06;;;;;;;10.27;3.13;;;15.40;79.40;;;;;;5040222;28;20176;-88
2022/05/20 08:02:32;;;;;;;6.97;2.90;;;15.50;79.80;;;;;;5039908;28;20179;-87
2022/05/20 08:05:01;;;;;;;7.45;2.90;;;15.50;79.30;;;;;;5057192;28;20202;-89
2022/05/20 08:07:36;;;;;;;6.00;2.95;;;15.50;78.80;;;;;;5039476;28;20200;-85
2022/05/20 08:10:05;;;;;;;12.07;2.50;;;15.50;76.70;;;;;;5043069;28;20646;-88
2022/05/20 08:12:31;;;;;;;7.55;2.80;;;15.50;77.80;;;;;;5064370;28;20176;-88
2022/05/20 08:14:56;;;;;;;5.93;2.50;;;15.70;78.40;;;;;;5045493;28;20668;-88
2022/05/20 08:17:26;;;;;;;8.23;2.78;;;15.90;76.70;;;;;;5046214;28;20211;-88
2022/05/20 08:19:56;;;;;;;10.48;2.72;;;15.90;74.80;;;;;;5046688;28;20725;-88
2022/05/20 08:22:22;;;;;;;11.60;3.00;;;16.00;75.60;;;;;;5064103;28;20176;-88
2022/05/20 08:24:58;;;;;;;10.18;2.60;;;16.00;74.20;;;;;;5048622;28;20178;-88
2022/05/20 08:27:26;;;;;;;7.65;2.30;;;16.10;74.20;;;;;;5047696;28;20206;-88
2022/05/20 08:29:52;;;;;;;8.55;2.75;;;16.20;74.00;;;;;;5045373;28;20206;-88
2022/05/20 08:32:18;;;;;;;8.07;3.40;;;16.30;74.00;;;;;;5044464;28;20188;-88
2022/05/20 08:34:46;;;;;;;9.70;3.45;;;16.60;74.90;;;;;;5061438;28;20180;-87
2022/05/20 08:37:13;;;;;;;10.90;2.80;;;16.60;74.00;;;;;;5042046;28;20180;-87
2022/05/20 08:39:38;;;;;;;10.57;3.28;;;16.60;74.70;;;;;;5061352;28;20221;-87
2022/05/20 08:42:07;;;;;;;12.43;2.90;;;16.50;75.00;;;;;;5043603;28;20609;-88
2022/05/20 08:44:34;;;;;;;9.55;2.72;;;16.70;75.30;;;;;;5045767;28;20182;-88
2022/05/20 08:47:26;;;;;;;6.65;2.33;;;16.60;74.00;;;;;;5041233;28;20546;-87
2022/05/20 08:49:58;;;;;;;9.82;3.10;;;16.60;74.90;;;;;;5042643;28;20176;-88
2022/05/20 08:52:24;;;;;;;5.85;2.28;;;16.50;74.50;;;;;;5041770;28;20171;-88
2022/05/20 08:54:50;;;;;;;10.07;3.47;;;16.50;74.90;;;;;;5043659;28;20168;-87
2022/05/20 08:57:27;;;;;;;8.90;3.03;;;16.60;75.20;;;;;;5040498;28;20668;-88
2022/05/20 08:59:52;;;;;;;12.35;3.05;;;16.80;75.10;;;;;;5039206;28;20199;-87
2022/05/20 09:02:18;;;;;;;6.05;2.72;;;17.00;74.90;;;;;;5038295;28;20172;-87
2022/05/20 09:04:44;;;;;;;9.93;2.92;;;17.10;72.20;;;;;;5056485;28;20203;-87
2022/05/20 09:07:14;;;;;;;9.32;2.88;;;17.30;71.70;;;;;;5038027;28;20237;-86
2022/05/20 09:09:59;;;;;;;10.15;2.53;;;17.50;71.30;;;;;;5037677;28;20553;-87
2022/05/20 09:12:32;;;;;;;8.23;2.65;;;17.60;69.80;;;;;;5055628;28;20149;-86
2022/05/20 09:18:00;;;;;;;8.70;2.58;;;17.70;69.00;;;;;;5055624;28;20582;-88
2022/05/20 09:20:26;;;;;;;9.23;3.05;;;17.50;70.80;;;;;;5037195;28;20196;-88
2022/05/20 09:22:58;;;;;;;13.38;2.97;;;17.50;70.50;;;;;;5037168;28;20203;-87
2022/05/20 09:25:29;;;;;;;11.35;3.00;;;17.50;69.60;;;;;;5037110;28;20540;-87
2022/05/20 09:28:13;;;;;;;7.88;2.67;;;17.80;70.50;;;;;;5037678;28;20208;-88
2022/05/20 09:30:41;;;;;;;10.93;3.15;;;18.00;70.10;;;;;;5037661;28;20199;-88
2022/05/20 09:33:20;;;;;;;5.85;2.63;;;18.10;67.70;;;;;;5037207;28;20188;-88
2022/05/20 09:35:53;;;;;;;6.70;2.20;;;18.50;69.70;;;;;;5037841;28;20171;-87
2022/05/20 09:38:38;;;;;;;9.25;2.53;;;18.50;68.00;;;;;;5055212;28;20164;-87
2022/05/20 09:41:15;;;;;;;8.57;2.40;;;18.80;69.00;;;;;;5037638;28;20230;-88
2022/05/20 09:43:51;;;;;;;7.65;2.63;;;18.80;67.50;;;;;;5038208;28;20605;-87
2022/05/20 09:46:49;;;;;;;7.93;2.40;;;18.80;65.70;;;;;;5055477;28;20243;-87
2022/05/20 09:49:31;;;;;;;9.40;2.50;;;18.70;65.00;;;;;;5055354;28;20223;-88
2022/05/20 09:52:00;;;;;;;9.38;2.75;;;18.80;66.00;;;;;;5036700;28;20198;-89
2022/05/20 09:54:36;;;;;;;9.63;2.63;;;18.80;66.60;;;;;;5036458;28;20668;-89
2022/05/20 09:57:12;;;;;;;6.68;2.08;;;18.90;64.70;;;;;;5036960;28;20200;-88
2022/05/20 09:59:55;;;;;;;8.38;2.75;;;18.90;65.40;;;;;;5038067;28;20229;-88
2022/05/20 10:02:46;;;;;;;8.20;2.35;;;19.10;65.90;;;;;;5036949;28;20665;-88
2022/05/20 10:05:16;;;;;;;8.02;2.50;;;19.00;64.40;;;;;;5037489;28;20635;-86
2022/05/20 10:08:19;;;;;;;5.85;2.40;;;18.90;63.20;;;;;;5055314;28;20199;-88
2022/05/20 10:10:55;;;;;;;8.15;2.28;;;19.10;64.70;;;;;;4995667;28;20209;-90
2022/05/20 10:13:35;;;;;;;7.57;2.42;;;19.20;63.10;;;;;;5054740;28;20275;-89
2022/05/20 10:16:14;;;;;;;5.72;2.08;;;19.50;62.80;;;;;;5054755;28;20168;-89
2022/05/20 10:19:11;;;;;;;4.80;2.25;;;19.80;63.70;;;;;;5036234;28;20259;-90
2022/05/20 10:22:00;;;;;;;6.00;2.08;;;19.80;62.60;;;;;;5036689;28;20675;-91
2022/05/20 10:24:44;;;;;;;5.13;2.08;;;19.50;61.70;;;;;;5036588;28;20635;-90
2022/05/20 10:27:36;;;;;;;6.53;2.17;;;19.60;63.60;;;;;;5036362;28;20171;-89
2022/05/20 10:33:06;;;;;;;14.18;3.53;;;20.10;63.20;;;;;;5054842;28;20194;-90
2022/05/20 10:35:49;;;;;;;9.73;2.30;;;20.10;61.60;;;;;;5036335;28;20164;-89
2022/05/20 10:38:39;;;;;;;4.85;2.22;;;20.00;62.90;;;;;;5054555;28;20214;-90
2022/05/20 10:41:11;;;;;;;7.40;2.10;;;20.20;62.80;;;;;;5035901;28;20241;-90
2022/05/20 10:50:00;;;;;;;7.85;2.03;;;20.20;58.20;;;;;;5061360;28;20236;-90
2022/05/20 10:52:53;;;;;;;7.05;2.63;;;20.30;57.80;;;;;;5042160;28;20168;-89
2022/05/20 10:55:24;;;;;;;6.85;2.72;;;20.20;58.30;;;;;;5042340;28;20222;-89
2022/05/20 10:58:22;;;;;;;5.60;2.15;;;20.20;60.20;;;;;;5038414;28;20255;-89
2022/05/20 11:00:50;;;;;;;6.75;2.30;;;20.20;59.60;;;;;;5037698;28;20199;-90
2022/05/20 11:03:34;;;;;;;5.60;2.33;;;20.40;59.60;;;;;;5056889;28;20176;-90
2022/05/20 11:06:49;;;;;;;5.85;2.28;;;20.30;59.80;;;;;;5040102;28;20195;-87
2022/05/20 11:09:29;;;;;;;4.97;2.20;;;20.70;59.70;;;;;;4996483;28;20219;-88
2022/05/20 11:12:01;;;;;;;6.80;2.15;;;21.00;60.00;;;;;;5039638;28;20628;-90
2022/05/20 11:14:44;;;;;;;8.73;2.65;;;21.20;59.10;;;;;;5041234;28;20172;-90
2022/05/20 11:17:37;;;;;;;8.90;2.65;;;21.20;57.60;;;;;;5037286;28;20172;-90
2022/05/20 11:20:22;;;;;;;8.43;2.70;;;21.20;58.20;;;;;;5039399;28;20171;-90
2022/05/20 11:22:54;;;;;;;7.13;2.53;;;21.10;58.30;;;;;;5058842;28;20156;-87
2022/05/20 11:25:43;;;;;;;5.72;2.72;;;21.20;59.10;;;;;;5062306;28;20175;-91
2022/05/20 11:28:18;;;;;;;9.43;2.63;;;21.10;57.70;;;;;;5043454;28;20206;-90
2022/05/20 11:30:58;;;;;;;7.40;2.63;;;20.90;57.00;;;;;;5043885;28;20199;-90
2022/05/20 11:33:54;;;;;;;6.20;2.40;;;20.70;58.80;;;;;;5041836;28;20194;-90
2022/05/20 11:36:38;;;;;;;10.23;2.80;;;20.80;59.10;;;;;;5058945;28;20153;-92
2022/05/20 11:39:52;;;;;;;6.50;2.50;;;20.80;56.40;;;;;;5041575;28;20199;-90
2022/05/20 11:43:31;;;;;;;6.88;2.97;;;20.40;58.20;;;;;;5041729;28;20270;-90
2022/05/20 11:46:20;;;;;;;4.43;2.47;;;20.70;58.00;;;;;;5048627;28;20270;-90
2022/05/20 11:49:27;;;;;;;5.85;2.65;;;20.90;56.70;;;;;;5058645;28;20184;-90
2022/05/20 11:52:17;;;;;;;6.72;2.25;;;20.50;55.00;;;;;;5041336;28;20693;-90
2022/05/20 11:54:54;;;;;;;7.35;2.00;;;20.40;59.20;;;;;;5040846;28;20267;-91
2022/05/20 11:57:29;;;;;;;6.30;2.70;;;20.70;59.20;;;;;;5041557;28;20167;-91
2022/05/20 12:00:11;;;;;;;9.10;3.72;;;20.50;60.10;;;;;;5042376;28;20168;-91
2022/05/20 12:02:46;;;;;;;6.63;3.00;;;19.70;59.50;;;;;;5041725;28;20192;-91
2022/05/20 12:05:15;;;;;;;7.38;3.05;;;19.50;61.30;;;;;;5042066;28;20206;-91
2022/05/20 12:07:41;;;;;;;6.85;3.08;;;19.00;61.70;;;;;;5041445;28;20298;-90
2022/05/20 12:10:36;;;;;;;6.50;3.05;;;18.90;61.80;;;;;;5042639;28;20183;-91
2022/05/20 12:13:22;;;;;;;6.50;3.42;;;18.80;63.40;;;;;;5043191;28;20168;-90
2022/05/20 12:16:09;;;;;;;6.85;3.28;;;18.80;63.70;;;;;;5044994;28;20199;-91
2022/05/20 12:24:52;;;;;;;9.18;3.20;;;19.20;65.80;;;;;;5060266;28;20237;-90
2022/05/20 12:27:22;;;;;;;5.00;3.10;;;19.70;64.00;;;;;;5037884;28;20193;-89
2022/05/20 12:29:55;;;;;;;8.40;3.15;;;19.80;63.40;;;;;;5045746;28;20259;-89
2022/05/20 12:32:30;;;;;;;8.18;3.03;;;20.20;61.00;;;;;;5043631;28;20191;-88
2022/05/20 12:35:08;;;;;;;7.90;3.00;;;20.20;59.00;;;;;;5056434;28;20167;-86
2022/05/20 12:37:43;;;;;;;6.32;3.50;;;20.30;59.10;;;;;;5046070;28;20172;-87
2022/05/20 12:40:37;;;;;;;5.45;2.85;;;20.30;60.10;;;;;;5061289;28;20195;-87
2022/05/20 12:43:02;;;;;;;5.95;3.25;;;20.20;60.60;;;;;;5044379;28;20219;-88
2022/05/20 12:45:36;;;;;;;8.18;3.40;;;20.10;59.80;;;;;;5052201;28;20195;-88
2022/05/20 12:48:01;;;;;;;8.85;3.58;;;19.90;61.20;;;;;;5052808;28;20210;-87
2022/05/20 12:50:28;;;;;;;7.03;3.33;;;20.20;59.70;;;;;;5044363;28;20259;-87
2022/05/20 12:53:03;;;;;;;8.30;3.10;;;20.40;56.90;;;;;;5064412;28;20187;-88
2022/05/20 12:55:37;;;;;;;6.95;3.53;;;20.80;59.10;;;;;;5053015;28;20171;-88
2022/05/20 12:58:08;;;;;;;8.85;3.80;;;20.90;56.60;;;;;;5053064;28;20176;-89
2022/05/20 13:00:58;;;;;;;8.05;3.92;;;20.50;59.10;;;;;;5050797;28;20260;-90
2022/05/20 13:03:43;;;;;;;8.00;3.15;;;20.50;61.50;;;;;;5072870;28;20203;-90
2022/05/20 13:06:18;;;;;;;5.68;3.92;;;20.50;58.90;;;;;;5072812;28;20636;-90
2022/05/20 13:08:51;;;;;;;6.72;3.85;;;20.30;59.20;;;;;;5070342;28;20194;-89
2022/05/20 13:11:20;;;;;;;9.65;3.65;;;20.10;61.50;;;;;;5053002;28;20192;-90
2022/05/20 13:13:49;;;;;;;8.77;4.07;;;20.00;61.50;;;;;;5047768;28;20179;-88
2022/05/20 13:16:15;;;;;;;6.45;3.55;;;19.80;60.50;;;;;;5051528;28;20247;-88
2022/05/20 13:18:44;;;;;;;6.82;3.60;;;20.10;63.50;;;;;;5046247;28;20199;-86
2022/05/20 13:21:16;;;;;;;8.73;3.72;;;20.40;60.90;;;;;;5040097;28;20222;-86
2022/05/20 13:23:47;;;;;;;10.52;4.22;;;20.70;60.60;;;;;;5042350;28;20195;-87
2022/05/20 13:26:25;;;;;;;7.80;4.05;;;21.00;59.90;;;;;;5040657;28;20182;-87
2022/05/20 13:28:51;;;;;;;8.30;3.75;;;21.20;58.20;;;;;;5043319;28;20226;-87
2022/05/20 13:31:23;;;;;;;5.82;3.40;;;21.60;58.60;;;;;;5045708;28;20188;-88
2022/05/20 13:33:49;;;;;;;7.43;3.97;;;22.10;59.50;;;;;;5046667;28;20175;-88
2022/05/20 13:36:21;;;;;;;11.27;3.90;;;22.20;56.20;;;;;;5049844;28;20180;-88
2022/05/20 13:38:54;;;;;;;6.80;3.80;;;22.30;55.80;;;;;;5046918;28;20172;-87
2022/05/20 13:41:23;;;;;;;7.28;3.30;;;22.00;53.50;;;;;;5065427;28;20719;-88